sensor_id;sensor_type;location;lat;lon;timestamp;temperature;humidity
19397;DHT22;9834;48.076;11.878;2023-07-29T00:02:14;15.10;99.90
19397;DHT22;9834;48.076;11.878;2023-07-29T00:04:42;15.10;99.90
19397;DHT22;9834;48.076;11.878;2023-07-29T00:07:09;15.10;99.90
19397;DHT22;9834;48.076;11.878;2023-07-29T00:09:39;15.00;99.90
19397;DHT22;9834;48.076;11.878;2023-07-29T00:12:08;15.10;99.90
19397;DHT22;9834;48.076;11.878;2023-07-29T00:14:38;15.10;99.90
19397;DHT22;9834;48.076;11.878;2023-07-29T00:17:14;15.20;99.90
19397;DHT22;9834;48.076;11.878;2023-07-29T00:19:49;15.20;99.90
19397;DHT22;9834;48.076;11.878;2023-07-29T00:22:16;15.30;99.90
19397;DHT22;9834;48.076;11.878;2023-07-29T00:24:51;15.30;99.90
19397;DHT22;9834;48.076;11.878;2023-07-29T00:27:19;15.30;99.90
19397;DHT22;9834;48.076;11.878;2023-07-29T00:29:45;15.40;99.90
19397;DHT22;9834;48.076;11.878;2023-07-29T00:32:17;15.40;99.90
19397;DHT22;9834;48.076;11.878;2023-07-29T00:34:47;15.40;99.90
19397;DHT22;9834;48.076;11.878;2023-07-29T00:37:15;15.50;99.90
19397;DHT22;9834;48.076;11.878;2023-07-29T00:39:45;15.40;99.90
19397;DHT22;9834;48.076;11.878;2023-07-29T00:42:12;15.40;99.90
19397;DHT22;9834;48.076;11.878;2023-07-29T00:44:39;15.40;99.90
19397;DHT22;9834;48.076;11.878;2023-07-29T00:47:13;15.40;99.90
19397;DHT22;9834;48.076;11.878;2023-07-29T00:49:43;15.30;99.90
19397;DHT22;9834;48.076;11.878;2023-07-29T00:52:15;15.30;99.90
19397;DHT22;9834;48.076;11.878;2023-07-29T00:54:47;15.20;99.90
19397;DHT22;9834;48.076;11.878;2023-07-29T00:57:23;15.20;99.90
19397;DHT22;9834;48.076;11.878;2023-07-29T00:59:54;15.10;99.90
19397;DHT22;9834;48.076;11.878;2023-07-29T01:02:24;15.10;99.90
19397;DHT22;9834;48.076;11.878;2023-07-29T01:04:57;15.00;99.90
19397;DHT22;9834;48.076;11.878;2023-07-29T01:07:30;15.00;99.90
19397;DHT22;9834;48.076;11.878;2023-07-29T01:10:01;15.10;99.90
19397;DHT22;9834;48.076;11.878;2023-07-29T01:12:40;15.10;99.90
19397;DHT22;9834;48.076;11.878;2023-07-29T01:15:13;15.10;99.90
19397;DHT22;9834;48.076;11.878;2023-07-29T01:18:05;15.10;99.90
19397;DHT22;9834;48.076;11.878;2023-07-29T01:20:37;15.20;99.90
19397;DHT22;9834;48.076;11.878;2023-07-29T01:23:30;15.20;99.90
19397;DHT22;9834;48.076;11.878;2023-07-29T01:25:57;15.10;99.90
19397;DHT22;9834;48.076;11.878;2023-07-29T01:28:35;15.10;99.90
19397;DHT22;9834;48.076;11.878;2023-07-29T01:31:10;15.10;99.90
19397;DHT22;9834;48.076;11.878;2023-07-29T01:33:45;15.10;99.90
19397;DHT22;9834;48.076;11.878;2023-07-29T01:36:24;15.00;99.90
19397;DHT22;9834;48.076;11.878;2023-07-29T01:39:04;14.90;99.90
19397;DHT22;9834;48.076;11.878;2023-07-29T01:41:31;14.80;99.90
19397;DHT22;9834;48.076;11.878;2023-07-29T01:44:01;14.80;99.90
19397;DHT22;9834;48.076;11.878;2023-07-29T01:46:31;14.70;99.90
19397;DHT22;9834;48.076;11.878;2023-07-29T01:48:58;14.70;99.90
19397;DHT22;9834;48.076;11.878;2023-07-29T01:51:33;14.60;99.90
19397;DHT22;9834;48.076;11.878;2023-07-29T01:54:07;14.60;99.90
19397;DHT22;9834;48.076;11.878;2023-07-29T01:56:40;14.50;99.90
19397;DHT22;9834;48.076;11.878;2023-07-29T01:59:10;14.50;99.90
19397;DHT22;9834;48.076;11.878;2023-07-29T02:01:37;14.40;99.90
19397;DHT22;9834;48.076;11.878;2023-07-29T02:04:04;14.40;99.90
19397;DHT22;9834;48.076;11.878;2023-07-29T02:06:33;14.30;99.90
19397;DHT22;9834;48.076;11.878;2023-07-29T02:09:02;14.30;99.90
19397;DHT22;9834;48.076;11.878;2023-07-29T02:11:33;14.20;99.90
19397;DHT22;9834;48.076;11.878;2023-07-29T02:14:00;14.20;99.90
19397;DHT22;9834;48.076;11.878;2023-07-29T02:16:27;14.20;99.90
19397;DHT22;9834;48.076;11.878;2023-07-29T02:18:56;14.20;99.90
19397;DHT22;9834;48.076;11.878;2023-07-29T02:21:26;14.20;99.90
19397;DHT22;9834;48.076;11.878;2023-07-29T02:23:56;14.30;99.90
19397;DHT22;9834;48.076;11.878;2023-07-29T02:26:24;14.30;99.90
19397;DHT22;9834;48.076;11.878;2023-07-29T02:28:52;14.30;99.90
19397;DHT22;9834;48.076;11.878;2023-07-29T02:31:21;14.30;99.90
19397;DHT22;9834;48.076;11.878;2023-07-29T02:33:48;14.20;99.90
19397;DHT22;9834;48.076;11.878;2023-07-29T02:36:18;14.20;99.90
19397;DHT22;9834;48.076;11.878;2023-07-29T02:38:45;14.20;99.90
19397;DHT22;9834;48.076;11.878;2023-07-29T02:41:15;14.20;99.90
19397;DHT22;9834;48.076;11.878;2023-07-29T02:43:48;14.20;99.90
19397;DHT22;9834;48.076;11.878;2023-07-29T02:46:30;14.10;99.90
19397;DHT22;9834;48.076;11.878;2023-07-29T02:49:04;14.10;99.90
19397;DHT22;9834;48.076;11.878;2023-07-29T02:51:31;14.10;99.90
19397;DHT22;9834;48.076;11.878;2023-07-29T02:53:58;14.10;99.90
19397;DHT22;9834;48.076;11.878;2023-07-29T02:56:27;14.10;99.90
19397;DHT22;9834;48.076;11.878;2023-07-29T02:58:54;14.10;99.90
19397;DHT22;9834;48.076;11.878;2023-07-29T03:01:21;14.10;99.90
19397;DHT22;9834;48.076;11.878;2023-07-29T03:04:09;14.20;99.90
19397;DHT22;9834;48.076;11.878;2023-07-29T03:06:41;14.10;99.90
19397;DHT22;9834;48.076;11.878;2023-07-29T03:09:08;14.10;99.90
19397;DHT22;9834;48.076;11.878;2023-07-29T03:11:35;14.10;99.90
19397;DHT22;9834;48.076;11.878;2023-07-29T03:14:02;14.00;99.90
19397;DHT22;9834;48.076;11.878;2023-07-29T03:16:29;14.00;99.90
19397;DHT22;9834;48.076;11.878;2023-07-29T03:18:58;13.90;99.90
19397;DHT22;9834;48.076;11.878;2023-07-29T03:21:36;13.90;99.90
19397;DHT22;9834;48.076;11.878;2023-07-29T03:24:06;13.90;99.90
19397;DHT22;9834;48.076;11.878;2023-07-29T03:26:36;13.90;99.90
19397;DHT22;9834;48.076;11.878;2023-07-29T03:29:03;13.90;99.90
19397;DHT22;9834;48.076;11.878;2023-07-29T03:31:35;14.00;99.90
19397;DHT22;9834;48.076;11.878;2023-07-29T03:34:02;14.10;99.90
19397;DHT22;9834;48.076;11.878;2023-07-29T03:36:29;14.10;99.90
19397;DHT22;9834;48.076;11.878;2023-07-29T03:39:12;14.10;99.90
19397;DHT22;9834;48.076;11.878;2023-07-29T03:41:42;14.10;99.90
19397;DHT22;9834;48.076;11.878;2023-07-29T03:44:09;14.10;99.90
19397;DHT22;9834;48.076;11.878;2023-07-29T03:46:37;14.10;99.90
19397;DHT22;9834;48.076;11.878;2023-07-29T03:49:04;14.10;99.90
19397;DHT22;9834;48.076;11.878;2023-07-29T03:51:31;14.10;99.90
19397;DHT22;9834;48.076;11.878;2023-07-29T03:54:01;14.10;99.90
19397;DHT22;9834;48.076;11.878;2023-07-29T03:56:35;14.20;99.90
19397;DHT22;9834;48.076;11.878;2023-07-29T03:59:02;14.20;99.90
19397;DHT22;9834;48.076;11.878;2023-07-29T04:01:32;14.30;99.90
19397;DHT22;9834;48.076;11.878;2023-07-29T04:03:59;14.40;99.90
19397;DHT22;9834;48.076;11.878;2023-07-29T04:06:41;14.50;99.90
19397;DHT22;9834;48.076;11.878;2023-07-29T04:09:13;14.60;99.90
19397;DHT22;9834;48.076;11.878;2023-07-29T04:11:42;14.80;99.90
19397;DHT22;9834;48.076;11.878;2023-07-29T04:14:13;14.80;99.90
19397;DHT22;9834;48.076;11.878;2023-07-29T04:16:46;14.90;99.90
19397;DHT22;9834;48.076;11.878;2023-07-29T04:19:15;15.00;99.90
19397;DHT22;9834;48.076;11.878;2023-07-29T04:21:42;15.00;99.90
19397;DHT22;9834;48.076;11.878;2023-07-29T04:24:11;15.10;99.90
19397;DHT22;9834;48.076;11.878;2023-07-29T04:26:38;15.10;99.90
19397;DHT22;9834;48.076;11.878;2023-07-29T04:29:21;15.10;99.90
19397;DHT22;9834;48.076;11.878;2023-07-29T04:31:52;15.10;99.90
19397;DHT22;9834;48.076;11.878;2023-07-29T04:34:21;15.10;99.90
19397;DHT22;9834;48.076;11.878;2023-07-29T04:36:48;15.20;99.90
19397;DHT22;9834;48.076;11.878;2023-07-29T04:39:15;15.20;99.90
19397;DHT22;9834;48.076;11.878;2023-07-29T04:41:51;15.30;99.90
19397;DHT22;9834;48.076;11.878;2023-07-29T04:44:18;15.30;99.90
19397;DHT22;9834;48.076;11.878;2023-07-29T04:46:53;15.40;99.90
19397;DHT22;9834;48.076;11.878;2023-07-29T04:49:20;15.40;99.90
19397;DHT22;9834;48.076;11.878;2023-07-29T04:51:47;15.40;99.90
19397;DHT22;9834;48.076;11.878;2023-07-29T04:54:14;15.40;99.90
19397;DHT22;9834;48.076;11.878;2023-07-29T04:56:48;15.50;99.90
19397;DHT22;9834;48.076;11.878;2023-07-29T04:59:17;15.50;99.90
19397;DHT22;9834;48.076;11.878;2023-07-29T05:01:48;15.70;99.90
19397;DHT22;9834;48.076;11.878;2023-07-29T05:04:23;15.80;99.90
19397;DHT22;9834;48.076;11.878;2023-07-29T05:06:55;15.90;99.90
19397;DHT22;9834;48.076;11.878;2023-07-29T05:09:29;15.90;99.90
19397;DHT22;9834;48.076;11.878;2023-07-29T05:11:56;16.00;99.90
19397;DHT22;9834;48.076;11.878;2023-07-29T05:14:40;16.10;99.90
19397;DHT22;9834;48.076;11.878;2023-07-29T05:17:14;16.10;99.90
19397;DHT22;9834;48.076;11.878;2023-07-29T05:19:49;16.20;99.90
19397;DHT22;9834;48.076;11.878;2023-07-29T05:22:18;16.30;99.90
19397;DHT22;9834;48.076;11.878;2023-07-29T05:24:47;16.50;99.90
19397;DHT22;9834;48.076;11.878;2023-07-29T05:27:20;16.70;99.90
19397;DHT22;9834;48.076;11.878;2023-07-29T05:29:49;16.90;99.90
19397;DHT22;9834;48.076;11.878;2023-07-29T05:32:49;17.00;99.90
19397;DHT22;9834;48.076;11.878;2023-07-29T05:35:19;17.20;99.90
19397;DHT22;9834;48.076;11.878;2023-07-29T05:37:52;17.30;99.90
19397;DHT22;9834;48.076;11.878;2023-07-29T05:40:19;17.40;99.90
19397;DHT22;9834;48.076;11.878;2023-07-29T05:42:52;17.40;99.90
19397;DHT22;9834;48.076;11.878;2023-07-29T05:45:24;17.40;99.90
19397;DHT22;9834;48.076;11.878;2023-07-29T05:47:53;17.40;99.90
19397;DHT22;9834;48.076;11.878;2023-07-29T05:50:25;17.50;99.90
19397;DHT22;9834;48.076;11.878;2023-07-29T05:52:55;17.60;99.90
19397;DHT22;9834;48.076;11.878;2023-07-29T05:55:25;17.70;99.90
19397;DHT22;9834;48.076;11.878;2023-07-29T05:57:55;17.90;99.90
19397;DHT22;9834;48.076;11.878;2023-07-29T06:00:23;18.00;99.90
19397;DHT22;9834;48.076;11.878;2023-07-29T06:02:50;18.10;99.90
19397;DHT22;9834;48.076;11.878;2023-07-29T06:05:20;18.20;99.90
19397;DHT22;9834;48.076;11.878;2023-07-29T06:07:49;18.40;99.90
19397;DHT22;9834;48.076;11.878;2023-07-29T06:10:19;18.40;99.90
19397;DHT22;9834;48.076;11.878;2023-07-29T06:12:48;18.40;99.90
19397;DHT22;9834;48.076;11.878;2023-07-29T06:15:15;18.30;99.90
19397;DHT22;9834;48.076;11.878;2023-07-29T06:17:47;18.40;99.90
19397;DHT22;9834;48.076;11.878;2023-07-29T06:20:23;18.20;99.90
19397;DHT22;9834;48.076;11.878;2023-07-29T06:22:56;18.00;99.90
19397;DHT22;9834;48.076;11.878;2023-07-29T06:25:22;17.80;99.90
19397;DHT22;9834;48.076;11.878;2023-07-29T06:27:52;17.60;99.90
19397;DHT22;9834;48.076;11.878;2023-07-29T06:30:19;17.40;99.90
19397;DHT22;9834;48.076;11.878;2023-07-29T06:32:53;17.30;99.90
19397;DHT22;9834;48.076;11.878;2023-07-29T06:35:28;17.20;99.90
19397;DHT22;9834;48.076;11.878;2023-07-29T06:37:55;17.10;99.90
19397;DHT22;9834;48.076;11.878;2023-07-29T06:40:25;17.00;99.90
19397;DHT22;9834;48.076;11.878;2023-07-29T06:42:52;17.10;99.90
19397;DHT22;9834;48.076;11.878;2023-07-29T06:45:19;17.10;99.90
19397;DHT22;9834;48.076;11.878;2023-07-29T06:47:45;17.20;99.90
19397;DHT22;9834;48.076;11.878;2023-07-29T06:50:15;17.30;99.90
19397;DHT22;9834;48.076;11.878;2023-07-29T06:52:43;17.40;99.90
19397;DHT22;9834;48.076;11.878;2023-07-29T06:55:15;17.50;99.90
19397;DHT22;9834;48.076;11.878;2023-07-29T06:57:42;17.70;99.90
19397;DHT22;9834;48.076;11.878;2023-07-29T07:00:10;17.80;99.90
19397;DHT22;9834;48.076;11.878;2023-07-29T07:02:39;17.90;99.90
19397;DHT22;9834;48.076;11.878;2023-07-29T07:05:10;17.70;99.90
19397;DHT22;9834;48.076;11.878;2023-07-29T07:07:37;17.50;99.90
19397;DHT22;9834;48.076;11.878;2023-07-29T07:10:14;17.30;99.90
19397;DHT22;9834;48.076;11.878;2023-07-29T07:12:41;17.10;99.90
19397;DHT22;9834;48.076;11.878;2023-07-29T07:15:10;16.90;99.90
19397;DHT22;9834;48.076;11.878;2023-07-29T07:17:42;16.80;99.90
19397;DHT22;9834;48.076;11.878;2023-07-29T07:20:12;16.90;99.90
19397;DHT22;9834;48.076;11.878;2023-07-29T07:22:39;16.90;99.90
19397;DHT22;9834;48.076;11.878;2023-07-29T07:25:21;17.00;99.90
19397;DHT22;9834;48.076;11.878;2023-07-29T07:27:56;17.00;99.90
19397;DHT22;9834;48.076;11.878;2023-07-29T07:30:26;17.00;99.90
19397;DHT22;9834;48.076;11.878;2023-07-29T07:32:55;17.00;99.90
19397;DHT22;9834;48.076;11.878;2023-07-29T07:35:25;17.10;99.90
19397;DHT22;9834;48.076;11.878;2023-07-29T07:37:51;17.30;99.90
19397;DHT22;9834;48.076;11.878;2023-07-29T07:40:28;17.40;99.90
19397;DHT22;9834;48.076;11.878;2023-07-29T07:42:58;17.40;99.90
19397;DHT22;9834;48.076;11.878;2023-07-29T07:45:27;17.50;99.90
19397;DHT22;9834;48.076;11.878;2023-07-29T07:47:53;17.60;99.90
19397;DHT22;9834;48.076;11.878;2023-07-29T07:50:29;17.70;99.90
19397;DHT22;9834;48.076;11.878;2023-07-29T07:53:01;17.90;99.90
19397;DHT22;9834;48.076;11.878;2023-07-29T07:55:30;18.00;99.90
19397;DHT22;9834;48.076;11.878;2023-07-29T07:57:56;18.00;99.90
19397;DHT22;9834;48.076;11.878;2023-07-29T08:00:23;18.20;99.90
19397;DHT22;9834;48.076;11.878;2023-07-29T08:02:53;18.20;99.90
19397;DHT22;9834;48.076;11.878;2023-07-29T08:05:26;18.30;99.90
19397;DHT22;9834;48.076;11.878;2023-07-29T08:07:56;18.20;99.90
19397;DHT22;9834;48.076;11.878;2023-07-29T08:10:24;18.20;99.90
19397;DHT22;9834;48.076;11.878;2023-07-29T08:12:52;18.20;99.90
19397;DHT22;9834;48.076;11.878;2023-07-29T08:15:19;18.10;99.90
19397;DHT22;9834;48.076;11.878;2023-07-29T08:17:46;18.00;99.90
19397;DHT22;9834;48.076;11.878;2023-07-29T08:20:13;17.90;99.90
19397;DHT22;9834;48.076;11.878;2023-07-29T08:22:47;17.80;99.90
19397;DHT22;9834;48.076;11.878;2023-07-29T08:25:14;18.00;99.90
19397;DHT22;9834;48.076;11.878;2023-07-29T08:27:49;18.10;99.90
19397;DHT22;9834;48.076;11.878;2023-07-29T08:30:28;18.10;99.90
19397;DHT22;9834;48.076;11.878;2023-07-29T08:32:55;18.30;99.90
19397;DHT22;9834;48.076;11.878;2023-07-29T08:35:22;18.40;99.90
19397;DHT22;9834;48.076;11.878;2023-07-29T08:37:49;18.50;99.90
19397;DHT22;9834;48.076;11.878;2023-07-29T08:40:27;18.70;99.90
19397;DHT22;9834;48.076;11.878;2023-07-29T08:42:57;18.90;99.90
19397;DHT22;9834;48.076;11.878;2023-07-29T08:45:28;19.20;99.90
19397;DHT22;9834;48.076;11.878;2023-07-29T08:48:00;19.30;99.90
19397;DHT22;9834;48.076;11.878;2023-07-29T08:50:29;19.60;99.90
19397;DHT22;9834;48.076;11.878;2023-07-29T08:52:59;20.00;99.90
19397;DHT22;9834;48.076;11.878;2023-07-29T08:55:29;20.20;99.90
19397;DHT22;9834;48.076;11.878;2023-07-29T08:58:05;20.30;99.90
19397;DHT22;9834;48.076;11.878;2023-07-29T09:00:43;20.30;99.90
19397;DHT22;9834;48.076;11.878;2023-07-29T09:03:10;20.20;99.90
19397;DHT22;9834;48.076;11.878;2023-07-29T09:05:40;20.00;99.90
19397;DHT22;9834;48.076;11.878;2023-07-29T09:08:17;19.90;99.90
19397;DHT22;9834;48.076;11.878;2023-07-29T09:10:44;20.10;99.90
19397;DHT22;9834;48.076;11.878;2023-07-29T09:13:30;20.40;99.90
19397;DHT22;9834;48.076;11.878;2023-07-29T09:16:01;20.60;99.90
19397;DHT22;9834;48.076;11.878;2023-07-29T09:18:31;21.00;99.90
19397;DHT22;9834;48.076;11.878;2023-07-29T09:21:00;21.30;99.90
19397;DHT22;9834;48.076;11.878;2023-07-29T09:23:27;21.50;99.90
19397;DHT22;9834;48.076;11.878;2023-07-29T09:26:00;21.70;99.90
19397;DHT22;9834;48.076;11.878;2023-07-29T09:28:33;21.60;99.90
19397;DHT22;9834;48.076;11.878;2023-07-29T09:31:21;21.40;99.90
19397;DHT22;9834;48.076;11.878;2023-07-29T09:33:56;21.20;99.90
19397;DHT22;9834;48.076;11.878;2023-07-29T09:36:23;21.20;99.90
19397;DHT22;9834;48.076;11.878;2023-07-29T09:39:10;21.30;99.90
19397;DHT22;9834;48.076;11.878;2023-07-29T09:41:37;21.70;99.90
19397;DHT22;9834;48.076;11.878;2023-07-29T09:47:20;22.30;99.90
19397;DHT22;9834;48.076;11.878;2023-07-29T09:49:54;22.40;99.90
19397;DHT22;9834;48.076;11.878;2023-07-29T09:52:32;22.40;99.90
19397;DHT22;9834;48.076;11.878;2023-07-29T09:55:24;22.30;99.90
19397;DHT22;9834;48.076;11.878;2023-07-29T09:57:59;22.70;99.90
19397;DHT22;9834;48.076;11.878;2023-07-29T10:00:32;23.10;99.90
19397;DHT22;9834;48.076;11.878;2023-07-29T10:03:00;23.10;99.90
19397;DHT22;9834;48.076;11.878;2023-07-29T10:05:30;23.00;99.90
19397;DHT22;9834;48.076;11.878;2023-07-29T10:08:00;23.20;99.90
19397;DHT22;9834;48.076;11.878;2023-07-29T10:10:30;23.50;99.90
19397;DHT22;9834;48.076;11.878;2023-07-29T10:13:00;23.90;99.90
19397;DHT22;9834;48.076;11.878;2023-07-29T10:15:32;23.90;99.90
19397;DHT22;9834;48.076;11.878;2023-07-29T10:18:03;23.90;99.90
19397;DHT22;9834;48.076;11.878;2023-07-29T10:20:38;24.00;99.90
19397;DHT22;9834;48.076;11.878;2023-07-29T10:23:07;24.40;99.90
19397;DHT22;9834;48.076;11.878;2023-07-29T10:25:54;25.00;99.90
19397;DHT22;9834;48.076;11.878;2023-07-29T10:28:23;26.20;99.90
19397;DHT22;9834;48.076;11.878;2023-07-29T10:30:54;27.00;95.50
19397;DHT22;9834;48.076;11.878;2023-07-29T10:33:32;27.80;91.50
19397;DHT22;9834;48.076;11.878;2023-07-29T10:36:07;28.20;90.70
19397;DHT22;9834;48.076;11.878;2023-07-29T10:38:40;28.90;82.90
19397;DHT22;9834;48.076;11.878;2023-07-29T10:41:09;29.00;80.50
19397;DHT22;9834;48.076;11.878;2023-07-29T10:43:44;28.80;80.30
19397;DHT22;9834;48.076;11.878;2023-07-29T10:46:19;28.30;80.70
19397;DHT22;9834;48.076;11.878;2023-07-29T10:48:59;27.60;75.40
19397;DHT22;9834;48.076;11.878;2023-07-29T10:51:40;27.30;75.50
19397;DHT22;9834;48.076;11.878;2023-07-29T10:54:11;27.60;73.90
19397;DHT22;9834;48.076;11.878;2023-07-29T10:56:40;27.70;77.90
19397;DHT22;9834;48.076;11.878;2023-07-29T10:59:33;28.10;75.50
19397;DHT22;9834;48.076;11.878;2023-07-29T11:02:11;28.60;73.60
19397;DHT22;9834;48.076;11.878;2023-07-29T11:04:48;28.80;72.30
19397;DHT22;9834;48.076;11.878;2023-07-29T11:07:23;28.60;73.10
19397;DHT22;9834;48.076;11.878;2023-07-29T11:10:11;28.90;72.80
19397;DHT22;9834;48.076;11.878;2023-07-29T11:12:42;29.10;70.50
19397;DHT22;9834;48.076;11.878;2023-07-29T11:15:18;29.00;68.60
19397;DHT22;9834;48.076;11.878;2023-07-29T11:17:50;28.80;71.70
19397;DHT22;9834;48.076;11.878;2023-07-29T11:20:19;29.30;70.40
19397;DHT22;9834;48.076;11.878;2023-07-29T11:22:50;29.80;65.70
19397;DHT22;9834;48.076;11.878;2023-07-29T11:25:21;29.70;67.70
19397;DHT22;9834;48.076;11.878;2023-07-29T11:27:51;29.70;66.40
19397;DHT22;9834;48.076;11.878;2023-07-29T11:30:24;30.50;64.10
19397;DHT22;9834;48.076;11.878;2023-07-29T11:33:02;31.20;62.40
19397;DHT22;9834;48.076;11.878;2023-07-29T11:35:33;31.10;61.50
19397;DHT22;9834;48.076;11.878;2023-07-29T11:38:14;31.30;60.10
19397;DHT22;9834;48.076;11.878;2023-07-29T11:40:58;31.70;59.10
19397;DHT22;9834;48.076;11.878;2023-07-29T11:43:25;32.60;58.00
19397;DHT22;9834;48.076;11.878;2023-07-29T11:45:55;32.70;55.00
19397;DHT22;9834;48.076;11.878;2023-07-29T11:48:28;31.70;55.30
19397;DHT22;9834;48.076;11.878;2023-07-29T11:51:02;30.30;59.30
19397;DHT22;9834;48.076;11.878;2023-07-29T11:53:32;29.40;62.40
19397;DHT22;9834;48.076;11.878;2023-07-29T11:55:59;29.70;60.00
19397;DHT22;9834;48.076;11.878;2023-07-29T11:58:26;29.50;61.50
19397;DHT22;9834;48.076;11.878;2023-07-29T12:00:53;28.00;63.50
19397;DHT22;9834;48.076;11.878;2023-07-29T12:03:22;27.70;68.00
19397;DHT22;9834;48.076;11.878;2023-07-29T12:06:01;29.30;65.20
19397;DHT22;9834;48.076;11.878;2023-07-29T12:08:30;29.30;61.30
19397;DHT22;9834;48.076;11.878;2023-07-29T12:10:57;30.00;62.20
19397;DHT22;9834;48.076;11.878;2023-07-29T12:13:24;32.10;59.90
19397;DHT22;9834;48.076;11.878;2023-07-29T12:16:01;33.10;54.00
19397;DHT22;9834;48.076;11.878;2023-07-29T12:18:30;33.80;51.30
19397;DHT22;9834;48.076;11.878;2023-07-29T12:20:57;33.80;50.90
19397;DHT22;9834;48.076;11.878;2023-07-29T12:23:28;32.40;51.80
19397;DHT22;9834;48.076;11.878;2023-07-29T12:25:59;31.10;56.90
19397;DHT22;9834;48.076;11.878;2023-07-29T12:28:26;31.70;53.60
19397;DHT22;9834;48.076;11.878;2023-07-29T12:30:53;32.50;53.40
19397;DHT22;9834;48.076;11.878;2023-07-29T12:33:35;32.50;53.30
19397;DHT22;9834;48.076;11.878;2023-07-29T12:36:07;33.70;50.20
19397;DHT22;9834;48.076;11.878;2023-07-29T12:38:41;35.20;48.70
19397;DHT22;9834;48.076;11.878;2023-07-29T12:41:09;35.80;46.80
19397;DHT22;9834;48.076;11.878;2023-07-29T12:43:48;36.80;45.40
19397;DHT22;9834;48.076;11.878;2023-07-29T12:46:20;37.70;43.30
19397;DHT22;9834;48.076;11.878;2023-07-29T12:48:47;38.80;41.00
19397;DHT22;9834;48.076;11.878;2023-07-29T12:51:14;38.80;41.50
19397;DHT22;9834;48.076;11.878;2023-07-29T12:53:42;39.20;43.00
19397;DHT22;9834;48.076;11.878;2023-07-29T12:56:32;39.10;39.40
19397;DHT22;9834;48.076;11.878;2023-07-29T12:59:01;37.00;43.00
19397;DHT22;9834;48.076;11.878;2023-07-29T13:01:34;36.10;43.90
19397;DHT22;9834;48.076;11.878;2023-07-29T13:04:07;34.50;46.50
19397;DHT22;9834;48.076;11.878;2023-07-29T13:06:40;33.50;49.40
19397;DHT22;9834;48.076;11.878;2023-07-29T13:09:11;32.30;51.40
19397;DHT22;9834;48.076;11.878;2023-07-29T13:11:41;30.40;54.90
19397;DHT22;9834;48.076;11.878;2023-07-29T13:14:13;29.00;59.00
19397;DHT22;9834;48.076;11.878;2023-07-29T13:16:40;27.80;62.10
19397;DHT22;9834;48.076;11.878;2023-07-29T13:19:09;26.80;64.10
19397;DHT22;9834;48.076;11.878;2023-07-29T13:21:36;25.80;68.60
19397;DHT22;9834;48.076;11.878;2023-07-29T13:24:06;24.80;76.00
19397;DHT22;9834;48.076;11.878;2023-07-29T13:26:34;23.30;81.30
19397;DHT22;9834;48.076;11.878;2023-07-29T13:29:04;21.40;97.50
19397;DHT22;9834;48.076;11.878;2023-07-29T13:31:31;20.20;99.90
19397;DHT22;9834;48.076;11.878;2023-07-29T13:33:58;19.20;99.90
19397;DHT22;9834;48.076;11.878;2023-07-29T13:36:25;18.50;99.90
19397;DHT22;9834;48.076;11.878;2023-07-29T13:38:54;18.00;99.90
19397;DHT22;9834;48.076;11.878;2023-07-29T13:41:31;17.60;99.90
19397;DHT22;9834;48.076;11.878;2023-07-29T13:43:59;17.40;99.90
19397;DHT22;9834;48.076;11.878;2023-07-29T13:46:26;17.30;99.90
19397;DHT22;9834;48.076;11.878;2023-07-29T13:48:56;18.00;99.90
19397;DHT22;9834;48.076;11.878;2023-07-29T13:51:23;18.90;99.90
19397;DHT22;9834;48.076;11.878;2023-07-29T13:53:50;20.00;99.90
19397;DHT22;9834;48.076;11.878;2023-07-29T13:56:22;19.90;99.90
19397;DHT22;9834;48.076;11.878;2023-07-29T14:01:29;19.30;99.90
19397;DHT22;9834;48.076;11.878;2023-07-29T14:03:59;19.50;99.90
19397;DHT22;9834;48.076;11.878;2023-07-29T14:06:25;19.60;99.90
19397;DHT22;9834;48.076;11.878;2023-07-29T14:08:52;19.70;99.90
19397;DHT22;9834;48.076;11.878;2023-07-29T14:11:25;19.80;99.90
19397;DHT22;9834;48.076;11.878;2023-07-29T14:13:52;20.00;99.90
19397;DHT22;9834;48.076;11.878;2023-07-29T14:16:19;20.20;99.90
19397;DHT22;9834;48.076;11.878;2023-07-29T14:18:53;20.40;99.90
19397;DHT22;9834;48.076;11.878;2023-07-29T14:21:20;20.50;99.90
19397;DHT22;9834;48.076;11.878;2023-07-29T14:23:49;20.50;99.90
19397;DHT22;9834;48.076;11.878;2023-07-29T14:26:16;20.30;99.90
19397;DHT22;9834;48.076;11.878;2023-07-29T14:28:45;20.10;99.90
19397;DHT22;9834;48.076;11.878;2023-07-29T14:31:12;19.90;99.90
19397;DHT22;9834;48.076;11.878;2023-07-29T14:33:42;19.90;99.90
19397;DHT22;9834;48.076;11.878;2023-07-29T14:36:17;20.00;99.90
19397;DHT22;9834;48.076;11.878;2023-07-29T14:38:43;20.00;99.90
19397;DHT22;9834;48.076;11.878;2023-07-29T14:41:13;20.00;99.90
19397;DHT22;9834;48.076;11.878;2023-07-29T14:43:45;20.00;99.90
19397;DHT22;9834;48.076;11.878;2023-07-29T14:46:12;20.10;99.90
19397;DHT22;9834;48.076;11.878;2023-07-29T14:48:44;19.90;99.90
19397;DHT22;9834;48.076;11.878;2023-07-29T14:51:19;19.90;99.90
19397;DHT22;9834;48.076;11.878;2023-07-29T14:53:48;19.60;99.90
19397;DHT22;9834;48.076;11.878;2023-07-29T14:56:14;19.40;99.90
19397;DHT22;9834;48.076;11.878;2023-07-29T14:58:46;19.40;99.90
19397;DHT22;9834;48.076;11.878;2023-07-29T15:01:17;19.30;99.90
19397;DHT22;9834;48.076;11.878;2023-07-29T15:03:48;19.30;99.90
19397;DHT22;9834;48.076;11.878;2023-07-29T15:06:26;19.30;99.90
19397;DHT22;9834;48.076;11.878;2023-07-29T15:08:53;19.30;99.90
19397;DHT22;9834;48.076;11.878;2023-07-29T15:11:22;19.20;99.90
19397;DHT22;9834;48.076;11.878;2023-07-29T15:13:58;19.10;99.90
19397;DHT22;9834;48.076;11.878;2023-07-29T15:16:29;19.20;99.90
19397;DHT22;9834;48.076;11.878;2023-07-29T15:19:04;19.40;99.90
19397;DHT22;9834;48.076;11.878;2023-07-29T15:21:33;19.30;99.90
19397;DHT22;9834;48.076;11.878;2023-07-29T15:24:03;19.20;99.90
19397;DHT22;9834;48.076;11.878;2023-07-29T15:26:30;19.20;99.90
19397;DHT22;9834;48.076;11.878;2023-07-29T15:29:00;19.20;99.90
19397;DHT22;9834;48.076;11.878;2023-07-29T15:31:29;19.30;99.90
19397;DHT22;9834;48.076;11.878;2023-07-29T15:33:56;19.20;99.90
19397;DHT22;9834;48.076;11.878;2023-07-29T15:36:23;19.30;99.90
19397;DHT22;9834;48.076;11.878;2023-07-29T15:38:57;19.40;99.90
19397;DHT22;9834;48.076;11.878;2023-07-29T15:41:31;19.60;99.90
19397;DHT22;9834;48.076;11.878;2023-07-29T15:44:01;19.70;99.90
19397;DHT22;9834;48.076;11.878;2023-07-29T15:46:32;19.90;99.90
19397;DHT22;9834;48.076;11.878;2023-07-29T15:49:05;20.00;99.90
19397;DHT22;9834;48.076;11.878;2023-07-29T15:51:40;20.20;99.90
19397;DHT22;9834;48.076;11.878;2023-07-29T15:54:09;20.40;99.90
19397;DHT22;9834;48.076;11.878;2023-07-29T15:56:38;20.40;99.90
19397;DHT22;9834;48.076;11.878;2023-07-29T15:59:05;20.50;99.90
19397;DHT22;9834;48.076;11.878;2023-07-29T16:01:34;20.40;99.90